createdAt,value
2022-09-26T00:01:11.830Z,1.98
2022-09-26T00:03:40.540Z,2.13
2022-09-26T00:06:10.515Z,2.20
2022-09-26T00:08:40.068Z,2.83
2022-09-26T00:11:10.060Z,2.53
2022-09-26T00:16:08.600Z,2.42
2022-09-26T00:18:36.610Z,2.38
2022-09-26T00:21:05.938Z,2.97
2022-09-26T00:23:35.408Z,2.50
2022-09-26T00:26:03.492Z,2.90
2022-09-26T00:28:31.459Z,2.72
2022-09-26T00:31:04.937Z,2.70
2022-09-26T00:33:33.028Z,2.75
2022-09-26T00:36:01.358Z,2.50
2022-09-26T00:38:29.499Z,3.15
2022-09-26T00:40:59.208Z,2.90
2022-09-26T00:43:31.971Z,3.30
2022-09-26T00:46:03.312Z,3.20
2022-09-26T00:48:32.161Z,3.42
2022-09-26T00:51:00.839Z,3.75
2022-09-26T00:53:34.541Z,3.35
2022-09-26T00:56:09.624Z,3.42
2022-09-26T00:58:43.130Z,4.43
2022-09-26T01:01:11.426Z,4.05
2022-09-26T01:03:42.777Z,4.65
2022-09-26T01:06:10.842Z,3.72
2022-09-26T01:08:43.193Z,4.05
2022-09-26T01:11:17.115Z,3.88
2022-09-26T01:13:46.262Z,3.78
2022-09-26T01:16:14.566Z,3.85
2022-09-26T01:18:43.346Z,4.20
2022-09-26T01:21:31.749Z,4.47
2022-09-26T01:24:25.561Z,4.40
2022-09-26T01:27:18.792Z,4.10
2022-09-26T01:30:10.886Z,4.30
2022-09-26T01:33:25.593Z,4.28
2022-09-26T01:36:11.577Z,3.67
2022-09-26T01:38:51.764Z,4.60
2022-09-26T01:41:34.124Z,3.97
2022-09-26T01:44:16.161Z,4.40
2022-09-26T01:46:52.095Z,3.63
2022-09-26T01:49:25.874Z,3.83
2022-09-26T01:51:59.617Z,4.50
2022-09-26T01:54:32.961Z,4.40
2022-09-26T01:57:03.821Z,3.85
2022-09-26T01:59:36.307Z,3.60
2022-09-26T02:02:11.899Z,3.55
2022-09-26T02:04:45.695Z,3.85
2022-09-26T02:07:17.811Z,3.60
2022-09-26T02:09:51.219Z,3.75
2022-09-26T02:12:24.816Z,3.65
2022-09-26T02:14:55.526Z,3.70
2022-09-26T02:17:29.447Z,3.53
2022-09-26T02:20:00.710Z,3.53
2022-09-26T02:22:32.871Z,3.88
2022-09-26T02:25:01.637Z,3.25
2022-09-26T02:27:29.977Z,3.60
2022-09-26T02:29:58.659Z,3.28
2022-09-26T02:32:32.570Z,3.50
2022-09-26T02:35:01.634Z,2.95
2022-09-26T02:37:32.557Z,3.67
2022-09-26T02:40:01.121Z,3.17
2022-09-26T02:42:36.649Z,3.53
2022-09-26T02:45:21.779Z,3.00
2022-09-26T02:48:34.187Z,3.20
2022-09-26T02:51:21.206Z,3.20
2022-09-26T02:54:05.035Z,3.40
2022-09-26T02:57:01.512Z,3.00
2022-09-26T02:59:35.080Z,2.90
2022-09-26T03:02:10.225Z,2.97
2022-09-26T03:04:48.355Z,3.40
2022-09-26T03:07:24.320Z,3.15
2022-09-26T03:09:55.618Z,2.72
2022-09-26T03:12:27.436Z,2.95
2022-09-26T03:14:58.665Z,3.20
2022-09-26T03:17:28.254Z,3.10
2022-09-26T03:22:28.712Z,3.00
2022-09-26T03:24:59.657Z,2.90
2022-09-26T03:27:28.749Z,3.40
2022-09-26T03:30:00.710Z,3.20
2022-09-26T03:32:29.723Z,2.80
2022-09-26T03:34:59.180Z,3.20
2022-09-26T03:37:27.210Z,3.05
2022-09-26T03:39:55.888Z,3.30
2022-09-26T03:42:33.527Z,3.65
2022-09-26T03:45:01.897Z,2.85
2022-09-26T03:47:30.206Z,3.20
2022-09-26T03:50:00.130Z,3.17
2022-09-26T03:52:28.431Z,3.70
2022-09-26T03:54:56.398Z,3.95
2022-09-26T03:57:24.342Z,3.42
2022-09-26T04:00:02.145Z,3.55
2022-09-26T04:02:44.136Z,3.70
2022-09-26T04:05:25.732Z,3.67
2022-09-26T04:10:22.780Z,3.45
2022-09-26T04:12:50.701Z,3.67
2022-09-26T04:15:19.012Z,3.83
2022-09-26T04:17:47.254Z,3.75
2022-09-26T04:20:15.509Z,3.40
2022-09-26T04:25:14.887Z,4.15
2022-09-26T04:27:42.866Z,4.00
2022-09-26T04:30:12.305Z,4.15
2022-09-26T04:32:48.665Z,4.40
2022-09-26T04:35:34.902Z,4.40
2022-09-26T04:38:04.656Z,4.53
2022-09-26T04:40:34.014Z,4.25
2022-09-26T04:43:08.355Z,3.88
2022-09-26T04:45:36.394Z,3.90
2022-09-26T04:48:04.551Z,4.38
2022-09-26T04:50:51.040Z,3.80
2022-09-26T04:53:20.599Z,4.05
2022-09-26T04:56:03.378Z,3.88
2022-09-26T04:58:32.941Z,4.05
2022-09-26T05:01:04.114Z,3.60
2022-09-26T05:03:44.557Z,4.10
2022-09-26T05:06:14.699Z,4.03
2022-09-26T05:08:46.505Z,4.10
2022-09-26T05:11:16.864Z,4.00
2022-09-26T05:13:48.096Z,3.70
2022-09-26T05:16:19.422Z,3.85
2022-09-26T05:18:52.898Z,4.28
2022-09-26T05:21:21.460Z,4.20
2022-09-26T05:24:08.646Z,4.18
2022-09-26T05:26:42.116Z,4.18
2022-09-26T05:29:12.270Z,4.03
2022-09-26T05:31:54.636Z,4.25
2022-09-26T05:34:26.232Z,4.07
2022-09-26T05:36:56.085Z,4.20
2022-09-26T05:39:43.429Z,4.38
2022-09-26T05:42:13.732Z,4.53
2022-09-26T05:44:41.799Z,5.25
2022-09-26T05:47:10.239Z,4.72
2022-09-26T05:49:38.892Z,5.20
2022-09-26T05:52:09.785Z,4.45
2022-09-26T05:54:39.083Z,4.65
2022-09-26T05:57:27.014Z,5.07
2022-09-26T05:59:56.693Z,5.25
2022-09-26T06:02:24.678Z,5.05
2022-09-26T06:05:10.183Z,5.18
2022-09-26T06:07:38.081Z,5.25
2022-09-26T06:10:12.765Z,5.28
2022-09-26T06:13:02.679Z,5.30
2022-09-26T06:15:33.583Z,5.53
2022-09-26T06:18:04.390Z,5.72
2022-09-26T06:20:33.409Z,5.93
2022-09-26T06:23:01.868Z,6.13
2022-09-26T06:25:31.212Z,6.38
2022-09-26T06:28:02.321Z,6.22
2022-09-26T06:30:31.434Z,7.22
2022-09-26T06:33:09.069Z,6.45
2022-09-26T06:36:01.173Z,7.35
2022-09-26T06:38:34.356Z,6.88
2022-09-26T06:41:05.233Z,7.22
2022-09-26T06:43:33.851Z,6.63
2022-09-26T06:46:10.569Z,7.10
2022-09-26T06:48:48.555Z,7.55
2022-09-26T06:51:38.056Z,7.15
2022-09-26T06:54:06.049Z,7.30
2022-09-26T06:56:35.332Z,7.60
2022-09-26T06:59:03.791Z,7.40
2022-09-26T07:01:36.836Z,7.97
2022-09-26T07:04:27.350Z,7.35
2022-09-26T07:07:18.205Z,7.07
2022-09-26T07:09:46.175Z,7.93
2022-09-26T07:12:44.084Z,7.13
2022-09-26T07:15:14.046Z,7.20
2022-09-26T07:17:42.222Z,6.95
2022-09-26T07:20:21.202Z,7.30
2022-09-26T07:23:14.480Z,6.60
2022-09-26T07:25:46.080Z,7.03
2022-09-26T07:28:15.596Z,7.70
2022-09-26T07:30:57.102Z,7.88
2022-09-26T07:33:48.007Z,7.20
2022-09-26T07:36:18.476Z,7.20
2022-09-26T07:38:48.538Z,6.82
2022-09-26T07:41:18.815Z,6.50
2022-09-26T07:47:06.655Z,5.95
2022-09-26T07:49:52.329Z,5.60
2022-09-26T07:52:35.682Z,5.38
2022-09-26T07:55:28.537Z,5.13
2022-09-26T07:58:14.947Z,5.10
2022-09-26T08:00:46.930Z,5.60
2022-09-26T08:03:26.206Z,4.90
2022-09-26T08:05:55.706Z,4.70
2022-09-26T08:08:23.671Z,4.25
2022-09-26T08:11:03.884Z,4.38
2022-09-26T08:14:02.071Z,4.15
2022-09-26T08:16:41.740Z,3.80
2022-09-26T08:19:11.221Z,3.20
2022-09-26T08:21:40.163Z,4.18
2022-09-26T08:24:08.176Z,3.70
2022-09-26T08:26:56.351Z,3.97
2022-09-26T08:29:28.567Z,3.70
2022-09-26T08:31:58.386Z,3.88
2022-09-26T08:34:26.383Z,4.07
2022-09-26T08:37:12.949Z,3.70
2022-09-26T08:40:01.097Z,3.20
2022-09-26T08:42:57.029Z,3.42
2022-09-26T08:46:35.836Z,3.70
2022-09-26T08:49:49.060Z,3.22
2022-09-26T08:52:28.098Z,3.00
2022-09-26T08:54:58.680Z,3.20
2022-09-26T08:57:35.613Z,3.35
2022-09-26T09:00:14.276Z,3.25
2022-09-26T09:02:50.211Z,2.90
2022-09-26T09:05:24.735Z,3.53
2022-09-26T09:07:55.747Z,2.60
2022-09-26T09:10:41.016Z,2.85
2022-09-26T09:13:42.709Z,3.20
2022-09-26T09:16:41.429Z,2.95
2022-09-26T09:19:46.841Z,2.45
2022-09-26T09:23:00.041Z,2.20
2022-09-26T09:25:33.971Z,2.30
2022-09-26T09:28:14.750Z,2.50
2022-09-26T09:30:46.804Z,2.60
2022-09-26T09:33:33.236Z,2.40
2022-09-26T09:36:19.787Z,2.20
2022-09-26T09:39:25.410Z,2.63
2022-09-26T09:42:05.968Z,2.30
2022-09-26T09:44:47.676Z,2.15
2022-09-26T09:47:17.532Z,2.50
2022-09-26T09:49:48.461Z,2.30
2022-09-26T09:52:42.671Z,2.30
2022-09-26T09:55:23.177Z,2.67
2022-09-26T09:58:05.504Z,2.40
2022-09-26T10:00:37.010Z,2.30
2022-09-26T10:03:24.215Z,2.47
2022-09-26T10:05:57.492Z,2.70
2022-09-26T10:08:32.425Z,2.40
2022-09-26T10:11:28.606Z,2.75
2022-09-26T10:14:03.145Z,2.13
2022-09-26T10:17:15.316Z,2.63
2022-09-26T10:20:01.911Z,2.55
2022-09-26T10:22:37.517Z,2.70
2022-09-26T10:25:09.784Z,2.30
2022-09-26T10:27:42.052Z,2.63
2022-09-26T10:30:26.926Z,2.72
2022-09-26T10:32:59.967Z,2.90
2022-09-26T10:35:48.658Z,2.55
2022-09-26T10:38:24.198Z,3.10
2022-09-26T10:40:59.716Z,3.58
2022-09-26T10:43:32.307Z,2.78
2022-09-26T10:46:11.911Z,2.75
2022-09-26T10:49:16.967Z,3.03
2022-09-26T10:52:18.168Z,3.63
2022-09-26T10:54:59.024Z,2.78
2022-09-26T10:57:33.520Z,2.75
2022-09-26T11:00:09.056Z,2.67
2022-09-26T11:02:37.701Z,2.80
2022-09-26T11:05:24.963Z,2.92
2022-09-26T11:08:10.500Z,2.90
2022-09-26T11:11:00.537Z,3.08
2022-09-26T11:13:41.034Z,3.70
2022-09-26T11:16:15.614Z,3.35
2022-09-26T11:18:52.934Z,3.38
2022-09-26T11:21:29.426Z,3.78
2022-09-26T11:24:07.066Z,3.33
2022-09-26T11:26:40.087Z,2.83
2022-09-26T11:29:16.680Z,2.90
2022-09-26T11:32:06.801Z,3.60
2022-09-26T11:35:03.193Z,3.35
2022-09-26T11:37:47.442Z,3.35
2022-09-26T11:40:30.808Z,3.60
2022-09-26T11:43:19.825Z,3.20
2022-09-26T11:46:14.936Z,2.85
2022-09-26T11:49:29.999Z,2.88
2022-09-26T11:52:30.696Z,2.70
2022-09-26T11:55:09.307Z,3.25
2022-09-26T11:57:44.327Z,3.17
2022-09-26T12:00:24.230Z,4.22
2022-09-26T12:05:44.354Z,3.22
2022-09-26T12:08:25.797Z,3.65
2022-09-26T12:11:02.832Z,3.67
2022-09-26T12:13:41.836Z,3.10
2022-09-26T12:16:16.186Z,3.27
2022-09-26T12:18:55.537Z,3.08
2022-09-26T12:21:36.307Z,3.42
2022-09-26T12:24:11.587Z,3.72
2022-09-26T12:26:46.525Z,3.75
2022-09-26T12:29:32.312Z,2.90
2022-09-26T12:32:18.667Z,3.50
2022-09-26T12:35:15.825Z,2.63
2022-09-26T12:38:10.881Z,2.83
2022-09-26T12:40:51.074Z,2.83
2022-09-26T12:43:44.805Z,3.08
2022-09-26T12:46:31.612Z,3.15
2022-09-26T12:49:14.155Z,3.03
2022-09-26T12:51:47.139Z,3.45
2022-09-26T12:54:44.955Z,3.17
2022-09-26T12:57:24.390Z,3.45
2022-09-26T13:00:11.045Z,2.90
2022-09-26T13:02:57.577Z,2.60
2022-09-26T13:05:53.854Z,2.90
2022-09-26T13:08:30.787Z,2.70
2022-09-26T13:11:18.429Z,2.60
2022-09-26T13:14:06.153Z,2.40
2022-09-26T13:16:45.283Z,2.28
2022-09-26T13:19:21.057Z,2.03
2022-09-26T13:21:55.496Z,2.00
2022-09-26T13:24:26.775Z,1.80
2022-09-26T13:27:04.775Z,2.25
2022-09-26T13:29:36.490Z,1.80
2022-09-26T13:32:17.272Z,1.80
2022-09-26T13:34:49.038Z,2.15
2022-09-26T13:37:31.876Z,2.05
2022-09-26T13:40:11.550Z,1.88
2022-09-26T13:42:47.160Z,1.65
2022-09-26T13:45:22.777Z,1.40
2022-09-26T13:47:57.352Z,1.50
2022-09-26T13:50:30.938Z,1.60
2022-09-26T13:53:08.437Z,1.40
2022-09-26T13:55:38.234Z,1.58
2022-09-26T13:58:21.182Z,1.30
2022-09-26T14:00:56.970Z,1.50
2022-09-26T14:03:42.618Z,1.40
2022-09-26T14:06:32.016Z,1.20
2022-09-26T14:09:29.445Z,1.15
2022-09-26T14:12:21.348Z,1.38
2022-09-26T14:15:18.993Z,1.10
2022-09-26T14:18:22.352Z,1.20
2022-09-26T14:21:05.007Z,1.45
2022-09-26T14:23:39.212Z,1.40
2022-09-26T14:26:10.318Z,1.60
2022-09-26T14:28:39.961Z,1.50
2022-09-26T14:31:44.026Z,1.50
2022-09-26T14:34:22.911Z,1.73
2022-09-26T14:36:53.185Z,1.70
2022-09-26T14:39:33.542Z,1.90
2022-09-26T14:42:16.166Z,2.05
2022-09-26T14:44:54.539Z,1.67
2022-09-26T14:47:23.198Z,2.33
2022-09-26T14:50:04.331Z,1.90
2022-09-26T14:52:33.996Z,2.10
2022-09-26T14:55:06.177Z,1.70
2022-09-26T14:57:36.248Z,1.80
2022-09-26T15:00:35.787Z,2.05
2022-09-26T15:03:07.098Z,2.17
2022-09-26T15:05:37.027Z,2.10
2022-09-26T15:10:41.263Z,2.13
2022-09-26T15:13:19.763Z,2.50
2022-09-26T15:15:57.408Z,2.50
2022-09-26T15:18:34.737Z,2.53
2022-09-26T15:21:12.652Z,2.55
2022-09-26T15:23:49.688Z,2.58
2022-09-26T15:26:21.445Z,2.42
2022-09-26T15:28:51.959Z,2.90
2022-09-26T15:31:26.333Z,2.50
2022-09-26T15:34:00.526Z,2.60
2022-09-26T15:36:31.453Z,2.70
2022-09-26T15:39:00.118Z,2.50
2022-09-26T15:41:45.874Z,2.72
2022-09-26T15:44:25.690Z,2.40
2022-09-26T15:46:53.944Z,2.80
2022-09-26T15:49:24.479Z,2.88
2022-09-26T15:51:56.901Z,2.80
2022-09-26T15:54:29.436Z,2.83
2022-09-26T15:57:00.760Z,2.58
2022-09-26T15:59:32.285Z,2.58
2022-09-26T16:02:01.726Z,2.53
2022-09-26T16:04:31.984Z,2.60
2022-09-26T16:07:03.364Z,2.13
2022-09-26T16:09:33.442Z,2.55
2022-09-26T16:12:04.955Z,2.08
2022-09-26T16:14:47.510Z,2.30
2022-09-26T16:17:23.577Z,2.28
2022-09-26T16:19:53.696Z,2.42
2022-09-26T16:22:36.499Z,2.13
2022-09-26T16:25:52.898Z,2.50
2022-09-26T16:28:44.764Z,2.30
2022-09-26T16:31:24.508Z,2.67
2022-09-26T16:33:54.495Z,2.40
2022-09-26T16:39:01.275Z,2.40
2022-09-26T16:42:00.197Z,2.10
2022-09-26T16:44:33.826Z,2.10
2022-09-26T16:47:05.278Z,2.17
2022-09-26T16:49:45.754Z,2.47
2022-09-26T16:52:34.440Z,2.45
2022-09-26T16:55:07.112Z,2.22
2022-09-26T16:57:38.416Z,2.33
2022-09-26T17:00:33.784Z,2.38
2022-09-26T17:03:02.330Z,2.75
2022-09-26T17:05:30.658Z,2.78
2022-09-26T17:07:58.850Z,2.67
2022-09-26T17:10:28.370Z,2.35
2022-09-26T17:12:56.532Z,2.60
2022-09-26T17:15:28.617Z,2.50
2022-09-26T17:17:57.767Z,2.60
2022-09-26T17:20:26.968Z,2.50
2022-09-26T17:22:55.544Z,2.58
2022-09-26T17:25:24.954Z,2.65
2022-09-26T17:27:59.689Z,3.17
2022-09-26T17:30:27.791Z,2.55
2022-09-26T17:32:56.017Z,3.08
2022-09-26T17:35:26.669Z,2.55
2022-09-26T17:37:55.477Z,2.75
2022-09-26T17:40:26.384Z,3.03
2022-09-26T17:42:57.256Z,2.75
2022-09-26T17:45:29.788Z,2.60
2022-09-26T17:48:00.517Z,2.88
2022-09-26T17:50:31.504Z,2.90
2022-09-26T17:53:02.080Z,2.85
2022-09-26T17:55:31.135Z,3.10
2022-09-26T17:58:02.339Z,3.03
2022-09-26T18:00:34.481Z,2.90
2022-09-26T18:03:04.213Z,2.88
2022-09-26T18:08:12.147Z,3.25
2022-09-26T18:10:45.851Z,2.63
2022-09-26T18:13:16.861Z,2.85
2022-09-26T18:15:45.004Z,2.90
2022-09-26T18:18:16.150Z,2.97
2022-09-26T18:20:45.595Z,2.75
2022-09-26T18:23:18.488Z,3.05
2022-09-26T18:25:47.599Z,2.55
2022-09-26T18:28:20.824Z,2.93
2022-09-26T18:30:57.714Z,2.92
2022-09-26T18:33:28.934Z,2.50
2022-09-26T18:35:58.390Z,2.78
2022-09-26T18:38:26.668Z,3.10
2022-09-26T18:40:58.581Z,3.17
2022-09-26T18:43:36.515Z,2.60
2022-09-26T18:46:11.150Z,3.17
2022-09-26T18:48:39.326Z,2.65
2022-09-26T18:51:07.647Z,3.30
2022-09-26T18:53:37.461Z,3.10
2022-09-26T18:58:53.123Z,3.00
2022-09-26T19:01:28.516Z,3.33
2022-09-26T19:03:59.607Z,3.38
2022-09-26T19:06:32.557Z,3.30
2022-09-26T19:09:02.961Z,3.50
2022-09-26T19:11:32.686Z,4.10
2022-09-26T19:14:11.764Z,3.50
2022-09-26T19:16:39.830Z,4.90
2022-09-26T19:19:07.875Z,3.50
2022-09-26T19:21:38.426Z,3.97
2022-09-26T19:24:11.676Z,3.35
2022-09-26T19:26:43.018Z,3.83
2022-09-26T19:29:16.135Z,3.63
2022-09-26T19:31:44.794Z,3.97
2022-09-26T19:34:15.507Z,3.70
2022-09-26T19:36:43.625Z,3.63
2022-09-26T19:39:13.930Z,4.05
2022-09-26T19:41:42.064Z,4.32
2022-09-26T19:44:10.559Z,3.83
2022-09-26T19:46:41.079Z,3.78
2022-09-26T19:49:13.035Z,3.70
2022-09-26T19:51:41.103Z,4.07
2022-09-26T19:54:15.710Z,3.80
2022-09-26T19:56:44.216Z,3.67
2022-09-26T19:59:12.868Z,3.85
2022-09-26T20:01:43.986Z,4.10
2022-09-26T20:04:17.472Z,3.70
2022-09-26T20:06:46.140Z,3.95
2022-09-26T20:09:20.204Z,3.88
2022-09-26T20:11:48.313Z,3.70
2022-09-26T20:14:25.837Z,3.72
2022-09-26T20:16:58.466Z,3.58
2022-09-26T20:19:34.288Z,3.92
2022-09-26T20:22:03.809Z,3.58
2022-09-26T20:24:34.391Z,3.63
2022-09-26T20:27:07.077Z,3.53
2022-09-26T20:29:55.573Z,3.67
2022-09-26T20:32:25.146Z,3.90
2022-09-26T20:34:53.252Z,3.30
2022-09-26T20:37:23.758Z,3.65
2022-09-26T20:39:52.485Z,3.60
2022-09-26T20:42:22.137Z,3.78
2022-09-26T20:44:51.135Z,3.92
2022-09-26T20:47:21.242Z,3.80
2022-09-26T20:49:54.423Z,3.83
2022-09-26T20:52:24.662Z,3.88
2022-09-26T20:57:22.533Z,4.30
2022-09-26T20:59:51.292Z,3.87
2022-09-26T21:02:28.161Z,4.15
2022-09-26T21:05:00.285Z,4.75
2022-09-26T21:07:30.144Z,4.72
2022-09-26T21:09:58.894Z,4.50
2022-09-26T21:12:27.180Z,4.35
2022-09-26T21:14:55.246Z,4.80
2022-09-26T21:17:29.108Z,4.38
2022-09-26T21:19:59.228Z,4.75
2022-09-26T21:22:47.852Z,5.00
2022-09-26T21:25:17.632Z,4.70
2022-09-26T21:27:46.404Z,4.70
2022-09-26T21:30:15.694Z,5.47
2022-09-26T21:32:47.474Z,4.93
2022-09-26T21:35:19.329Z,4.30
2022-09-26T21:37:48.879Z,5.07
2022-09-26T21:40:17.816Z,5.13
2022-09-26T21:42:50.357Z,4.78
2022-09-26T21:45:23.622Z,4.35
2022-09-26T21:47:55.264Z,4.40
2022-09-26T21:50:26.444Z,4.35
2022-09-26T21:53:00.757Z,4.28
2022-09-26T21:55:32.668Z,4.22
2022-09-26T21:58:04.165Z,4.60
2022-09-26T22:00:32.255Z,4.53
2022-09-26T22:03:00.876Z,4.78
2022-09-26T22:05:31.345Z,4.13
2022-09-26T22:08:00.213Z,4.30
2022-09-26T22:10:29.294Z,4.25
2022-09-26T22:12:57.714Z,3.72
2022-09-26T22:15:25.839Z,4.13
2022-09-26T22:17:54.836Z,4.85
2022-09-26T22:20:23.515Z,5.60
2022-09-26T22:22:53.062Z,6.28
2022-09-26T22:25:21.214Z,5.50
2022-09-26T22:27:49.319Z,5.57
2022-09-26T22:30:17.486Z,5.53
2022-09-26T22:32:45.645Z,5.85
2022-09-26T22:35:14.308Z,5.72
2022-09-26T22:37:42.382Z,5.53
2022-09-26T22:40:12.050Z,5.68
2022-09-26T22:42:40.214Z,6.03
2022-09-26T22:45:09.262Z,5.30
2022-09-26T22:47:37.387Z,6.00
2022-09-26T22:50:06.080Z,6.00
2022-09-26T22:52:34.148Z,6.38
2022-09-26T22:55:02.151Z,6.50
2022-09-26T22:57:32.748Z,6.43
2022-09-26T23:00:01.887Z,6.07
2022-09-26T23:02:30.087Z,6.40
2022-09-26T23:04:58.189Z,6.25
2022-09-26T23:07:26.653Z,7.20
2022-09-26T23:09:54.772Z,6.38
2022-09-26T23:12:22.850Z,7.07
2022-09-26T23:14:52.555Z,7.60
2022-09-26T23:17:20.622Z,6.80
2022-09-26T23:19:48.754Z,7.05
2022-09-26T23:22:17.216Z,7.78
2022-09-26T23:24:45.317Z,7.20
2022-09-26T23:27:13.436Z,7.25
2022-09-26T23:29:41.746Z,7.38
2022-09-26T23:32:11.321Z,6.82
2022-09-26T23:34:39.428Z,7.15
2022-09-26T23:37:07.478Z,7.47
2022-09-26T23:39:35.530Z,8.10
2022-09-26T23:42:03.804Z,7.65
2022-09-26T23:44:32.297Z,7.95
2022-09-26T23:47:02.663Z,7.93
2022-09-26T23:49:32.224Z,7.32
2022-09-26T23:52:00.431Z,7.88
2022-09-26T23:54:28.475Z,7.50
2022-09-26T23:56:56.564Z,6.88
2022-09-26T23:59:25.427Z,6.40
